createdAt,value
2019-04-27T00:02:01.852Z,12.90
2019-04-27T00:07:26.924Z,12.80
2019-04-27T00:12:33.135Z,12.60
2019-04-27T00:17:56.897Z,12.60
2019-04-27T00:23:04.870Z,12.60
2019-04-27T00:28:12.752Z,12.70
2019-04-27T00:33:17.943Z,12.70
2019-04-27T00:38:31.195Z,12.70
2019-04-27T00:43:37.721Z,12.50
2019-04-27T00:48:44.614Z,12.40
2019-04-27T00:53:50.317Z,12.50
2019-04-27T00:59:13.744Z,12.50
2019-04-27T01:04:23.683Z,12.40
2019-04-27T01:09:29.658Z,12.30
2019-04-27T01:14:37.189Z,12.40
2019-04-27T01:19:41.934Z,12.40
2019-04-27T01:24:49.230Z,12.30
2019-04-27T01:29:55.389Z,12.10
2019-04-27T01:35:01.425Z,12.20
2019-04-27T01:40:06.401Z,12.30
2019-04-27T01:45:11.683Z,12.20
2019-04-27T02:57:04.548Z,12.00
2019-04-27T03:02:30.003Z,12.00
2019-04-27T03:07:39.930Z,12.20
2019-04-27T03:12:49.970Z,11.90
2019-04-27T03:18:26.567Z,11.80
2019-04-27T03:23:31.970Z,11.90
2019-04-27T03:28:39.922Z,12.00
2019-04-27T03:33:44.358Z,11.90
2019-04-27T03:38:51.259Z,11.80
2019-04-27T03:43:59.538Z,11.80
2019-04-27T03:49:05.208Z,11.70
2019-04-27T03:54:22.183Z,11.70
2019-04-27T03:59:53.522Z,11.60
2019-04-27T04:04:59.594Z,11.40
2019-04-27T04:10:06.084Z,11.40
2019-04-27T04:20:20.993Z,11.00
2019-04-27T04:25:26.094Z,10.90
2019-04-27T04:30:31.031Z,11.00
2019-04-27T04:35:39.817Z,11.00
2019-04-27T04:40:51.205Z,10.80
2019-04-27T04:46:13.916Z,10.80
2019-04-27T04:51:20.093Z,10.80
2019-04-27T04:56:29.226Z,10.70
2019-04-27T05:01:35.045Z,10.70
2019-04-27T05:06:40.386Z,10.60
2019-04-27T05:11:46.063Z,10.70
2019-04-27T05:16:51.535Z,10.80
2019-04-27T05:21:56.307Z,10.80
2019-04-27T05:27:01.113Z,10.70
2019-04-27T05:32:08.890Z,10.70
2019-04-27T05:37:13.794Z,10.80
2019-04-27T05:42:20.082Z,10.80
2019-04-27T05:47:39.255Z,11.00
2019-04-27T05:52:44.611Z,10.80
2019-04-27T05:57:49.631Z,10.80
2019-04-27T06:02:54.872Z,10.80
2019-04-27T06:08:01.591Z,10.90
2019-04-27T06:13:06.364Z,10.90
2019-04-27T06:18:11.559Z,11.00
2019-04-27T06:23:16.538Z,11.10
2019-04-27T06:28:21.419Z,11.10
2019-04-27T06:33:33.809Z,11.10
2019-04-27T06:38:34.104Z,11.10
2019-04-27T06:43:40.608Z,11.20
2019-04-27T06:48:45.915Z,11.00
2019-04-27T06:53:51.142Z,11.10
2019-04-27T06:58:56.260Z,11.10
2019-04-27T07:04:02.098Z,11.10
2019-04-27T07:09:09.710Z,11.20
2019-04-27T07:14:14.896Z,11.30
2019-04-27T07:19:20.248Z,11.40
2019-04-27T07:24:26.189Z,12.10
2019-04-27T07:29:31.964Z,12.70
2019-04-27T07:34:38.789Z,13.10
2019-04-27T07:39:49.214Z,12.70
2019-04-27T07:45:09.352Z,12.90
2019-04-27T07:50:15.985Z,12.80
2019-04-27T07:55:33.975Z,13.30
2019-04-27T08:00:39.577Z,13.50
2019-04-27T08:05:45.107Z,13.40
2019-04-27T08:10:50.314Z,13.60
2019-04-27T08:15:55.116Z,13.50
2019-04-27T08:21:00.134Z,14.10
2019-04-27T08:26:08.752Z,14.10
2019-04-27T08:31:35.821Z,14.30
2019-04-27T08:36:40.773Z,14.00
2019-04-27T08:41:46.591Z,14.00
2019-04-27T08:46:51.497Z,14.00
2019-04-27T08:51:59.924Z,13.60
2019-04-27T08:57:03.553Z,13.60
2019-04-27T09:02:08.888Z,13.40
2019-04-27T09:07:32.185Z,13.40
2019-04-27T09:13:13.088Z,13.00
2019-04-27T09:18:20.879Z,13.00
2019-04-27T09:23:25.888Z,13.00
2019-04-27T09:28:30.774Z,13.40
2019-04-27T09:33:35.915Z,13.50
2019-04-27T09:38:40.760Z,13.50
2019-04-27T09:43:46.599Z,13.70
2019-04-27T09:48:51.931Z,14.20
2019-04-27T09:53:56.750Z,13.00
2019-04-27T09:59:02.098Z,13.10
2019-04-27T10:04:07.278Z,12.90
2019-04-27T10:09:12.093Z,13.40
2019-04-27T10:14:17.255Z,13.80
2019-04-27T10:19:28.546Z,13.70
2019-04-27T10:24:29.434Z,14.20
2019-04-27T10:29:35.563Z,14.10
2019-04-27T10:34:40.523Z,13.50
2019-04-27T10:39:46.207Z,13.20
2019-04-27T10:44:51.439Z,12.60
2019-04-27T10:49:56.708Z,13.20
2019-04-27T10:55:02.637Z,13.10
2019-04-27T11:00:10.259Z,13.00
2019-04-27T11:05:26.230Z,13.10
2019-04-27T11:10:30.506Z,13.00
2019-04-27T11:15:37.092Z,13.50
2019-04-27T11:20:41.934Z,13.30
2019-04-27T11:25:47.970Z,13.20
2019-04-27T11:30:52.787Z,13.20
2019-04-27T11:36:17.073Z,13.40
2019-04-27T11:41:22.054Z,13.10
2019-04-27T11:46:26.917Z,12.50
2019-04-27T11:51:31.796Z,12.70
2019-04-27T11:56:36.874Z,12.90
2019-04-27T12:01:42.071Z,12.80
2019-04-27T12:06:47.362Z,12.30
2019-04-27T12:11:57.452Z,12.70
2019-04-27T12:17:01.906Z,12.90
2019-04-27T12:22:07.095Z,12.80
2019-04-27T12:27:35.871Z,13.30
2019-04-27T12:32:40.914Z,13.20
2019-04-27T12:37:46.193Z,13.30
2019-04-27T12:42:51.911Z,12.90
2019-04-27T12:47:57.446Z,12.80
2019-04-27T12:53:05.403Z,12.90
2019-04-27T12:58:33.779Z,13.00
2019-04-27T13:03:38.946Z,13.00
2019-04-27T13:08:45.697Z,13.20
2019-04-27T13:13:51.110Z,13.20
2019-04-27T13:18:57.496Z,13.30
2019-04-27T13:24:06.286Z,13.10
2019-04-27T13:29:09.392Z,13.10
2019-04-27T13:34:15.913Z,13.20
2019-04-27T13:39:21.266Z,13.50
2019-04-27T13:44:26.834Z,13.30
2019-04-27T13:49:48.952Z,13.40
2019-04-27T13:54:55.722Z,13.40
2019-04-27T14:00:01.282Z,13.40
2019-04-27T14:05:07.059Z,13.30
2019-04-27T14:10:13.082Z,13.10
2019-04-27T14:15:18.714Z,13.30
2019-04-27T14:20:23.582Z,13.20
2019-04-27T14:25:29.646Z,13.20
2019-04-27T14:30:34.767Z,13.30
2019-04-27T14:35:39.575Z,13.30
2019-04-27T14:40:44.520Z,13.00
2019-04-27T14:45:50.503Z,12.90
2019-04-27T14:50:55.359Z,12.90
2019-04-27T14:56:00.198Z,13.00
2019-04-27T15:01:05.164Z,12.90
2019-04-27T15:06:30.238Z,13.00
2019-04-27T15:11:35.223Z,13.00
2019-04-27T15:16:42.261Z,13.00
2019-04-27T15:21:56.402Z,13.10
2019-04-27T15:26:54.272Z,13.00
2019-04-27T15:32:04.233Z,13.10
2019-04-27T15:37:19.072Z,13.10
2019-04-27T15:42:30.606Z,13.10
2019-04-27T15:47:42.543Z,13.10
2019-04-27T15:52:48.759Z,13.00
2019-04-27T15:57:54.232Z,12.90
2019-04-27T16:02:59.072Z,12.70
2019-04-27T16:08:06.116Z,12.70
2019-04-27T16:13:15.076Z,12.80
2019-04-27T16:18:18.657Z,13.30
2019-04-27T16:23:25.613Z,13.30
2019-04-27T16:28:30.367Z,13.10
2019-04-27T16:33:35.302Z,13.10
2019-04-27T16:38:55.151Z,13.30
2019-04-27T16:44:02.405Z,12.90
2019-04-27T16:49:13.289Z,13.00
2019-04-27T16:54:17.442Z,12.80
2019-04-27T16:59:39.603Z,12.50
2019-04-27T17:04:29.120Z,12.20
2019-04-27T17:09:36.294Z,11.80
2019-04-27T17:14:51.231Z,12.00
2019-04-27T17:20:01.495Z,11.60
2019-04-27T17:25:08.833Z,11.90
2019-04-27T17:30:15.705Z,11.90
2019-04-27T17:35:21.144Z,12.00
2019-04-27T17:40:29.848Z,12.20
2019-04-27T17:45:36.235Z,12.10
2019-04-27T17:50:40.495Z,12.10
2019-04-27T17:55:46.808Z,12.10
2019-04-27T18:00:52.802Z,12.20
2019-04-27T18:05:58.228Z,12.30
2019-04-27T18:11:03.588Z,12.10
2019-04-27T18:16:09.298Z,11.90
2019-04-27T18:21:14.911Z,11.90
2019-04-27T18:26:49.537Z,11.90
2019-04-27T18:31:53.054Z,11.80
2019-04-27T18:36:55.275Z,12.00
2019-04-27T18:42:01.054Z,12.00
2019-04-27T18:47:05.983Z,12.10
2019-04-27T18:52:28.979Z,12.00
2019-04-27T18:57:33.919Z,11.90
2019-04-27T19:02:39.254Z,11.90
2019-04-27T19:07:44.832Z,11.80
2019-04-27T19:12:49.887Z,11.80
2019-04-27T19:17:54.825Z,11.90
2019-04-27T19:22:59.896Z,11.80
2019-04-27T19:28:13.007Z,11.80
2019-04-27T19:33:18.226Z,11.80
2019-04-27T19:38:23.463Z,11.80
2019-04-27T19:43:28.505Z,10.80
2019-04-27T19:48:33.475Z,10.80
2019-04-27T19:53:40.133Z,10.80
2019-04-27T19:58:49.765Z,10.40
2019-04-27T20:04:06.043Z,10.50
2019-04-27T20:09:22.714Z,10.70
2019-04-27T20:14:27.559Z,10.90
2019-04-27T20:19:33.308Z,11.00
2019-04-27T20:24:47.046Z,11.10
2019-04-27T20:29:52.353Z,11.10
2019-04-27T20:34:57.235Z,11.10
2019-04-27T20:40:02.447Z,11.10
2019-04-27T20:45:08.012Z,11.20
2019-04-27T20:50:13.000Z,11.20
2019-04-27T20:55:22.051Z,11.20
2019-04-27T21:00:26.993Z,11.20
2019-04-27T21:05:51.101Z,11.30
2019-04-27T21:10:56.016Z,11.30
2019-04-27T21:16:02.229Z,11.30
2019-04-27T21:21:11.335Z,11.30
2019-04-27T21:26:16.138Z,11.40
2019-04-27T21:31:21.400Z,11.40
2019-04-27T21:36:26.460Z,11.10
2019-04-27T21:41:31.380Z,10.80
2019-04-27T21:46:36.490Z,10.70
2019-04-27T21:52:01.379Z,10.70
2019-04-27T21:57:06.462Z,10.70
2019-04-27T22:02:14.466Z,10.40
2019-04-27T22:07:19.248Z,10.40
2019-04-27T22:12:24.374Z,10.00
2019-04-27T22:17:29.398Z,10.20
2019-04-27T22:22:41.387Z,10.20
2019-04-27T22:27:47.079Z,10.00
2019-04-27T22:32:52.543Z,9.90
2019-04-27T22:37:57.461Z,10.00
2019-04-27T22:43:23.122Z,9.80
2019-04-27T22:48:28.294Z,10.00
2019-04-27T22:53:33.478Z,10.00
2019-04-27T22:58:40.680Z,10.00
2019-04-27T23:03:48.035Z,9.90
2019-04-27T23:08:52.893Z,10.00
2019-04-27T23:13:58.677Z,10.10
2019-04-27T23:19:03.797Z,10.10
2019-04-27T23:24:08.864Z,10.10
2019-04-27T23:29:15.912Z,10.00
2019-04-27T23:34:21.631Z,9.70
2019-04-27T23:39:27.602Z,10.00
2019-04-27T23:44:32.764Z,9.80
2019-04-27T23:49:37.748Z,9.90
2019-04-27T23:54:42.959Z,9.90
2019-04-27T23:59:51.502Z,9.80
